sensor_id;sensor_type;location;lat;lon;timestamp;P1;durP1;ratioP1;P2;durP2;ratioP2
16407;SDS011;8313;49.894;8.084;2022-09-28T00:02:03;1.97;;;1.57;;
16407;SDS011;8313;49.894;8.084;2022-09-28T00:04:29;1.60;;;1.50;;
16407;SDS011;8313;49.894;8.084;2022-09-28T00:06:57;2.87;;;1.70;;
16407;SDS011;8313;49.894;8.084;2022-09-28T00:09:23;1.27;;;1.17;;
16407;SDS011;8313;49.894;8.084;2022-09-28T00:11:49;4.80;;;1.87;;
16407;SDS011;8313;49.894;8.084;2022-09-28T00:14:14;1.80;;;1.70;;
16407;SDS011;8313;49.894;8.084;2022-09-28T00:16:41;2.50;;;1.90;;
16407;SDS011;8313;49.894;8.084;2022-09-28T00:19:08;1.50;;;1.40;;
16407;SDS011;8313;49.894;8.084;2022-09-28T00:21:36;1.43;;;1.10;;
16407;SDS011;8313;49.894;8.084;2022-09-28T00:24:04;1.83;;;1.30;;
16407;SDS011;8313;49.894;8.084;2022-09-28T00:26:47;1.40;;;1.30;;
16407;SDS011;8313;49.894;8.084;2022-09-28T00:29:22;1.07;;;1.00;;
16407;SDS011;8313;49.894;8.084;2022-09-28T00:31:51;2.07;;;1.60;;
16407;SDS011;8313;49.894;8.084;2022-09-28T00:34:23;1.80;;;1.50;;
16407;SDS011;8313;49.894;8.084;2022-09-28T00:37:01;1.20;;;1.20;;
16407;SDS011;8313;49.894;8.084;2022-09-28T00:39:29;1.90;;;1.60;;
16407;SDS011;8313;49.894;8.084;2022-09-28T00:41:59;1.63;;;1.53;;
16407;SDS011;8313;49.894;8.084;2022-09-28T00:49:31;1.40;;;1.30;;
16407;SDS011;8313;49.894;8.084;2022-09-28T00:52:18;1.60;;;1.40;;
16407;SDS011;8313;49.894;8.084;2022-09-28T00:54:56;1.13;;;1.03;;
16407;SDS011;8313;49.894;8.084;2022-09-28T00:57:25;2.93;;;1.50;;
16407;SDS011;8313;49.894;8.084;2022-09-28T00:59:52;1.50;;;1.40;;
16407;SDS011;8313;49.894;8.084;2022-09-28T01:02:19;1.43;;;1.33;;
16407;SDS011;8313;49.894;8.084;2022-09-28T01:04:45;4.97;;;1.30;;
16407;SDS011;8313;49.894;8.084;2022-09-28T01:07:12;1.23;;;1.13;;
16407;SDS011;8313;49.894;8.084;2022-09-28T01:09:38;1.30;;;1.20;;
16407;SDS011;8313;49.894;8.084;2022-09-28T01:12:05;1.57;;;1.37;;
16407;SDS011;8313;49.894;8.084;2022-09-28T01:14:31;1.80;;;1.27;;
16407;SDS011;8313;49.894;8.084;2022-09-28T01:17:01;2.90;;;1.30;;
16407;SDS011;8313;49.894;8.084;2022-09-28T01:25:03;2.70;;;1.57;;
16407;SDS011;8313;49.894;8.084;2022-09-28T01:27:43;1.30;;;1.20;;
16407;SDS011;8313;49.894;8.084;2022-09-28T01:30:14;1.63;;;1.27;;
16407;SDS011;8313;49.894;8.084;2022-09-28T01:33:43;0.97;;;0.97;;
16407;SDS011;8313;49.894;8.084;2022-09-28T01:35:47;2.13;;;1.70;;
16407;SDS011;8313;49.894;8.084;2022-09-28T01:38:36;2.17;;;1.97;;
16407;SDS011;8313;49.894;8.084;2022-09-28T01:41:15;1.97;;;1.87;;
16407;SDS011;8313;49.894;8.084;2022-09-28T01:43:54;2.60;;;2.10;;
16407;SDS011;8313;49.894;8.084;2022-09-28T01:46:23;4.83;;;2.70;;
16407;SDS011;8313;49.894;8.084;2022-09-28T01:48:53;5.43;;;2.30;;
16407;SDS011;8313;49.894;8.084;2022-09-28T01:54:08;2.40;;;2.10;;
16407;SDS011;8313;49.894;8.084;2022-09-28T01:56:45;2.00;;;1.50;;
16407;SDS011;8313;49.894;8.084;2022-09-28T01:59:21;2.03;;;1.83;;
16407;SDS011;8313;49.894;8.084;2022-09-28T02:04:32;3.10;;;2.50;;
16407;SDS011;8313;49.894;8.084;2022-09-28T02:07:07;3.07;;;2.40;;
16407;SDS011;8313;49.894;8.084;2022-09-28T02:09:42;2.47;;;2.27;;
16407;SDS011;8313;49.894;8.084;2022-09-28T02:12:14;1.43;;;1.30;;
16407;SDS011;8313;49.894;8.084;2022-09-28T02:14:48;1.97;;;1.27;;
16407;SDS011;8313;49.894;8.084;2022-09-28T02:17:16;1.37;;;1.23;;
16407;SDS011;8313;49.894;8.084;2022-09-28T02:19:45;2.60;;;1.60;;
16407;SDS011;8313;49.894;8.084;2022-09-28T02:22:14;1.67;;;1.57;;
16407;SDS011;8313;49.894;8.084;2022-09-28T02:30:15;1.17;;;1.13;;
16407;SDS011;8313;49.894;8.084;2022-09-28T02:32:43;3.80;;;2.07;;
16407;SDS011;8313;49.894;8.084;2022-09-28T02:35:14;1.70;;;1.60;;
16407;SDS011;8313;49.894;8.084;2022-09-28T02:37:42;2.13;;;1.50;;
16407;SDS011;8313;49.894;8.084;2022-09-28T02:40:17;2.07;;;1.80;;
16407;SDS011;8313;49.894;8.084;2022-09-28T02:42:51;1.93;;;1.80;;
16407;SDS011;8313;49.894;8.084;2022-09-28T02:45:40;2.10;;;1.60;;
16407;SDS011;8313;49.894;8.084;2022-09-28T02:53:44;2.57;;;2.37;;
16407;SDS011;8313;49.894;8.084;2022-09-28T03:07:59;3.60;;;2.57;;
16407;SDS011;8313;49.894;8.084;2022-09-28T03:13:14;4.07;;;2.63;;
16407;SDS011;8313;49.894;8.084;2022-09-28T03:15:42;4.53;;;2.23;;
16407;SDS011;8313;49.894;8.084;2022-09-28T03:18:09;2.37;;;2.00;;
16407;SDS011;8313;49.894;8.084;2022-09-28T03:20:35;1.80;;;1.70;;
16407;SDS011;8313;49.894;8.084;2022-09-28T03:23:01;3.00;;;1.90;;
16407;SDS011;8313;49.894;8.084;2022-09-28T03:25:28;1.90;;;1.80;;
16407;SDS011;8313;49.894;8.084;2022-09-28T03:27:54;2.23;;;2.03;;
16407;SDS011;8313;49.894;8.084;2022-09-28T03:30:19;173.10;;;79.27;;
16407;SDS011;8313;49.894;8.084;2022-09-28T03:32:55;91.23;;;49.20;;
16407;SDS011;8313;49.894;8.084;2022-09-28T03:35:26;32.87;;;20.83;;
16407;SDS011;8313;49.894;8.084;2022-09-28T03:37:55;14.77;;;8.17;;
16407;SDS011;8313;49.894;8.084;2022-09-28T03:40:22;7.17;;;4.33;;
16407;SDS011;8313;49.894;8.084;2022-09-28T03:42:49;6.20;;;3.57;;
16407;SDS011;8313;49.894;8.084;2022-09-28T03:45:15;4.13;;;3.27;;
16407;SDS011;8313;49.894;8.084;2022-09-28T03:47:45;4.93;;;3.20;;
16407;SDS011;8313;49.894;8.084;2022-09-28T03:50:11;2.73;;;2.50;;
16407;SDS011;8313;49.894;8.084;2022-09-28T03:52:37;5.80;;;2.80;;
16407;SDS011;8313;49.894;8.084;2022-09-28T03:55:03;2.43;;;2.07;;
16407;SDS011;8313;49.894;8.084;2022-09-28T03:57:29;2.90;;;2.60;;
16407;SDS011;8313;49.894;8.084;2022-09-28T03:59:55;2.77;;;2.33;;
16407;SDS011;8313;49.894;8.084;2022-09-28T04:02:21;2.77;;;1.80;;
16407;SDS011;8313;49.894;8.084;2022-09-28T04:04:46;2.67;;;2.17;;
16407;SDS011;8313;49.894;8.084;2022-09-28T04:07:13;2.60;;;1.80;;
16407;SDS011;8313;49.894;8.084;2022-09-28T04:09:38;1.80;;;1.70;;
16407;SDS011;8313;49.894;8.084;2022-09-28T04:12:04;2.50;;;1.50;;
16407;SDS011;8313;49.894;8.084;2022-09-28T04:14:31;2.20;;;1.50;;
16407;SDS011;8313;49.894;8.084;2022-09-28T04:16:57;1.80;;;1.70;;
16407;SDS011;8313;49.894;8.084;2022-09-28T04:19:24;1.10;;;1.00;;
16407;SDS011;8313;49.894;8.084;2022-09-28T04:22:09;1.20;;;1.10;;
16407;SDS011;8313;49.894;8.084;2022-09-28T04:24:36;1.27;;;1.17;;
16407;SDS011;8313;49.894;8.084;2022-09-28T04:27:02;1.93;;;0.93;;
16407;SDS011;8313;49.894;8.084;2022-09-28T04:29:47;0.87;;;0.83;;
16407;SDS011;8313;49.894;8.084;2022-09-28T04:32:12;5.33;;;1.00;;
16407;SDS011;8313;49.894;8.084;2022-09-28T04:34:39;0.93;;;0.87;;
16407;SDS011;8313;49.894;8.084;2022-09-28T04:37:05;0.80;;;0.77;;
16407;SDS011;8313;49.894;8.084;2022-09-28T04:39:30;4.80;;;1.00;;
16407;SDS011;8313;49.894;8.084;2022-09-28T04:41:56;2.27;;;1.10;;
16407;SDS011;8313;49.894;8.084;2022-09-28T04:44:22;1.00;;;1.00;;
16407;SDS011;8313;49.894;8.084;2022-09-28T04:46:53;1.13;;;0.90;;
16407;SDS011;8313;49.894;8.084;2022-09-28T04:49:28;2.63;;;1.10;;
16407;SDS011;8313;49.894;8.084;2022-09-28T04:52:08;1.13;;;1.00;;
16407;SDS011;8313;49.894;8.084;2022-09-28T04:54:36;1.33;;;1.17;;
16407;SDS011;8313;49.894;8.084;2022-09-28T04:57:02;0.80;;;0.80;;
16407;SDS011;8313;49.894;8.084;2022-09-28T04:59:29;0.87;;;0.87;;
16407;SDS011;8313;49.894;8.084;2022-09-28T05:01:54;0.97;;;0.90;;
16407;SDS011;8313;49.894;8.084;2022-09-28T05:04:49;1.00;;;0.90;;
16407;SDS011;8313;49.894;8.084;2022-09-28T05:07:33;1.50;;;1.30;;
16407;SDS011;8313;49.894;8.084;2022-09-28T05:10:01;1.07;;;1.00;;
16407;SDS011;8313;49.894;8.084;2022-09-28T05:12:29;2.00;;;1.20;;
16407;SDS011;8313;49.894;8.084;2022-09-28T05:14:55;2.10;;;1.00;;
16407;SDS011;8313;49.894;8.084;2022-09-28T05:17:20;1.17;;;1.10;;
16407;SDS011;8313;49.894;8.084;2022-09-28T05:20:13;0.90;;;0.90;;
16407;SDS011;8313;49.894;8.084;2022-09-28T05:22:39;1.03;;;0.93;;
16407;SDS011;8313;49.894;8.084;2022-09-28T05:25:07;1.43;;;0.90;;
16407;SDS011;8313;49.894;8.084;2022-09-28T05:27:44;1.87;;;0.80;;
16407;SDS011;8313;49.894;8.084;2022-09-28T05:30:26;2.93;;;1.27;;
16407;SDS011;8313;49.894;8.084;2022-09-28T05:33:11;1.10;;;1.10;;
16407;SDS011;8313;49.894;8.084;2022-09-28T05:35:43;0.80;;;0.80;;
16407;SDS011;8313;49.894;8.084;2022-09-28T05:38:09;1.10;;;1.03;;
16407;SDS011;8313;49.894;8.084;2022-09-28T05:40:35;1.43;;;0.93;;
16407;SDS011;8313;49.894;8.084;2022-09-28T05:43:01;1.27;;;0.90;;
16407;SDS011;8313;49.894;8.084;2022-09-28T05:45:27;1.40;;;0.80;;
16407;SDS011;8313;49.894;8.084;2022-09-28T05:47:53;2.60;;;1.50;;
16407;SDS011;8313;49.894;8.084;2022-09-28T05:50:20;1.50;;;1.40;;
16407;SDS011;8313;49.894;8.084;2022-09-28T05:52:46;1.43;;;1.33;;
16407;SDS011;8313;49.894;8.084;2022-09-28T05:55:25;1.53;;;1.43;;
16407;SDS011;8313;49.894;8.084;2022-09-28T05:57:50;2.00;;;1.37;;
16407;SDS011;8313;49.894;8.084;2022-09-28T06:00:17;1.00;;;0.93;;
16407;SDS011;8313;49.894;8.084;2022-09-28T06:02:54;1.50;;;1.40;;
16407;SDS011;8313;49.894;8.084;2022-09-28T06:05:38;1.37;;;1.17;;
16407;SDS011;8313;49.894;8.084;2022-09-28T06:08:05;2.20;;;1.70;;
16407;SDS011;8313;49.894;8.084;2022-09-28T06:10:33;3.07;;;1.90;;
16407;SDS011;8313;49.894;8.084;2022-09-28T06:12:59;1.90;;;1.33;;
16407;SDS011;8313;49.894;8.084;2022-09-28T06:15:26;1.70;;;1.40;;
16407;SDS011;8313;49.894;8.084;2022-09-28T06:17:59;1.93;;;1.30;;
16407;SDS011;8313;49.894;8.084;2022-09-28T06:20:39;1.37;;;1.27;;
16407;SDS011;8313;49.894;8.084;2022-09-28T06:23:13;2.20;;;1.43;;
16407;SDS011;8313;49.894;8.084;2022-09-28T06:25:39;2.13;;;1.73;;
16407;SDS011;8313;49.894;8.084;2022-09-28T06:28:06;1.73;;;1.30;;
16407;SDS011;8313;49.894;8.084;2022-09-28T06:30:36;1.27;;;1.10;;
16407;SDS011;8313;49.894;8.084;2022-09-28T06:33:05;5.17;;;1.50;;
16407;SDS011;8313;49.894;8.084;2022-09-28T06:35:32;1.40;;;1.30;;
16407;SDS011;8313;49.894;8.084;2022-09-28T06:37:59;1.57;;;1.47;;
16407;SDS011;8313;49.894;8.084;2022-09-28T06:40:26;1.47;;;1.30;;
16407;SDS011;8313;49.894;8.084;2022-09-28T06:42:56;1.93;;;1.53;;
16407;SDS011;8313;49.894;8.084;2022-09-28T06:45:42;6.40;;;1.50;;
16407;SDS011;8313;49.894;8.084;2022-09-28T06:48:28;0.77;;;0.77;;
16407;SDS011;8313;49.894;8.084;2022-09-28T06:50:55;1.33;;;1.23;;
16407;SDS011;8313;49.894;8.084;2022-09-28T06:53:23;2.03;;;1.30;;
16407;SDS011;8313;49.894;8.084;2022-09-28T06:55:55;2.10;;;1.23;;
16407;SDS011;8313;49.894;8.084;2022-09-28T06:58:21;1.57;;;1.30;;
16407;SDS011;8313;49.894;8.084;2022-09-28T07:00:51;1.33;;;1.20;;
16407;SDS011;8313;49.894;8.084;2022-09-28T07:03:18;0.70;;;0.70;;
16407;SDS011;8313;49.894;8.084;2022-09-28T07:05:57;1.30;;;1.20;;
16407;SDS011;8313;49.894;8.084;2022-09-28T07:08:35;1.30;;;1.17;;
16407;SDS011;8313;49.894;8.084;2022-09-28T07:11:19;1.27;;;1.17;;
16407;SDS011;8313;49.894;8.084;2022-09-28T07:14:01;1.17;;;1.00;;
16407;SDS011;8313;49.894;8.084;2022-09-28T07:16:28;1.20;;;1.20;;
16407;SDS011;8313;49.894;8.084;2022-09-28T07:18:55;1.80;;;1.10;;
16407;SDS011;8313;49.894;8.084;2022-09-28T07:21:20;0.87;;;0.87;;
16407;SDS011;8313;49.894;8.084;2022-09-28T07:23:46;1.97;;;1.60;;
16407;SDS011;8313;49.894;8.084;2022-09-28T07:26:21;1.30;;;1.20;;
16407;SDS011;8313;49.894;8.084;2022-09-28T07:28:53;2.00;;;1.10;;
16407;SDS011;8313;49.894;8.084;2022-09-28T07:31:58;1.63;;;1.53;;
16407;SDS011;8313;49.894;8.084;2022-09-28T07:34:33;1.20;;;1.20;;
16407;SDS011;8313;49.894;8.084;2022-09-28T07:37:16;1.47;;;1.23;;
16407;SDS011;8313;49.894;8.084;2022-09-28T07:39:43;1.20;;;1.10;;
16407;SDS011;8313;49.894;8.084;2022-09-28T07:42:30;1.77;;;1.30;;
16407;SDS011;8313;49.894;8.084;2022-09-28T07:44:56;1.30;;;1.20;;
16407;SDS011;8313;49.894;8.084;2022-09-28T07:47:22;1.20;;;1.10;;
16407;SDS011;8313;49.894;8.084;2022-09-28T07:50:13;1.17;;;1.07;;
16407;SDS011;8313;49.894;8.084;2022-09-28T07:52:59;1.40;;;1.30;;
16407;SDS011;8313;49.894;8.084;2022-09-28T07:55:29;1.37;;;1.13;;
16407;SDS011;8313;49.894;8.084;2022-09-28T07:58:20;1.50;;;1.40;;
16407;SDS011;8313;49.894;8.084;2022-09-28T08:01:19;1.03;;;1.00;;
16407;SDS011;8313;49.894;8.084;2022-09-28T08:03:45;1.30;;;1.20;;
16407;SDS011;8313;49.894;8.084;2022-09-28T08:06:13;3.40;;;1.60;;
16407;SDS011;8313;49.894;8.084;2022-09-28T08:08:41;1.97;;;1.30;;
16407;SDS011;8313;49.894;8.084;2022-09-28T08:11:13;1.90;;;1.60;;
16407;SDS011;8313;49.894;8.084;2022-09-28T08:14:01;1.13;;;1.10;;
16407;SDS011;8313;49.894;8.084;2022-09-28T08:16:56;1.43;;;1.43;;
16407;SDS011;8313;49.894;8.084;2022-09-28T08:19:33;1.67;;;1.30;;
16407;SDS011;8313;49.894;8.084;2022-09-28T08:22:18;1.40;;;1.30;;
16407;SDS011;8313;49.894;8.084;2022-09-28T08:24:45;1.27;;;1.17;;
16407;SDS011;8313;49.894;8.084;2022-09-28T08:27:11;1.20;;;1.10;;
16407;SDS011;8313;49.894;8.084;2022-09-28T08:29:39;0.90;;;0.90;;
16407;SDS011;8313;49.894;8.084;2022-09-28T08:32:29;1.13;;;1.03;;
16407;SDS011;8313;49.894;8.084;2022-09-28T08:35:19;1.10;;;1.10;;
16407;SDS011;8313;49.894;8.084;2022-09-28T08:38:07;1.57;;;1.10;;
16407;SDS011;8313;49.894;8.084;2022-09-28T08:41:02;1.40;;;1.30;;
16407;SDS011;8313;49.894;8.084;2022-09-28T08:44:14;0.90;;;0.90;;
16407;SDS011;8313;49.894;8.084;2022-09-28T08:47:06;1.20;;;1.10;;
16407;SDS011;8313;49.894;8.084;2022-09-28T08:50:25;1.40;;;1.10;;
16407;SDS011;8313;49.894;8.084;2022-09-28T08:53:14;1.53;;;1.30;;
16407;SDS011;8313;49.894;8.084;2022-09-28T08:56:14;2.00;;;1.73;;
16407;SDS011;8313;49.894;8.084;2022-09-28T08:58:49;4.27;;;2.13;;
16407;SDS011;8313;49.894;8.084;2022-09-28T09:01:19;4.67;;;1.93;;
16407;SDS011;8313;49.894;8.084;2022-09-28T09:03:48;2.00;;;1.80;;
16407;SDS011;8313;49.894;8.084;2022-09-28T09:12:28;2.50;;;1.27;;
16407;SDS011;8313;49.894;8.084;2022-09-28T09:15:27;1.60;;;1.50;;
16407;SDS011;8313;49.894;8.084;2022-09-28T09:20:57;1.10;;;1.00;;
16407;SDS011;8313;49.894;8.084;2022-09-28T09:26:20;1.63;;;1.10;;
16407;SDS011;8313;49.894;8.084;2022-09-28T09:28:59;2.00;;;0.73;;
16407;SDS011;8313;49.894;8.084;2022-09-28T09:44:04;1.50;;;1.40;;
16407;SDS011;8313;49.894;8.084;2022-09-28T09:47:40;5.40;;;1.47;;
16407;SDS011;8313;49.894;8.084;2022-09-28T09:50:29;1.40;;;0.90;;
16407;SDS011;8313;49.894;8.084;2022-09-28T09:55:39;1.13;;;1.00;;
16407;SDS011;8313;49.894;8.084;2022-09-28T10:01:15;0.97;;;0.97;;
16407;SDS011;8313;49.894;8.084;2022-09-28T10:06:55;0.80;;;0.80;;
16407;SDS011;8313;49.894;8.084;2022-09-28T10:09:26;1.07;;;1.00;;
16407;SDS011;8313;49.894;8.084;2022-09-28T10:12:10;4.97;;;2.13;;
16407;SDS011;8313;49.894;8.084;2022-09-28T10:14:45;1.67;;;1.57;;
16407;SDS011;8313;49.894;8.084;2022-09-28T10:17:15;2.70;;;1.47;;
16407;SDS011;8313;49.894;8.084;2022-09-28T10:20:21;0.70;;;0.70;;
16407;SDS011;8313;49.894;8.084;2022-09-28T10:23:02;1.50;;;0.90;;
16407;SDS011;8313;49.894;8.084;2022-09-28T10:25:30;0.90;;;0.90;;
16407;SDS011;8313;49.894;8.084;2022-09-28T10:28:01;0.70;;;0.70;;
16407;SDS011;8313;49.894;8.084;2022-09-28T10:30:30;0.70;;;0.70;;
16407;SDS011;8313;49.894;8.084;2022-09-28T10:33:01;1.27;;;0.93;;
16407;SDS011;8313;49.894;8.084;2022-09-28T10:35:39;0.50;;;0.50;;
16407;SDS011;8313;49.894;8.084;2022-09-28T10:38:14;0.70;;;0.70;;
16407;SDS011;8313;49.894;8.084;2022-09-28T10:40:49;0.90;;;0.87;;
16407;SDS011;8313;49.894;8.084;2022-09-28T10:43:47;1.20;;;1.10;;
16407;SDS011;8313;49.894;8.084;2022-09-28T10:46:32;1.90;;;1.30;;
16407;SDS011;8313;49.894;8.084;2022-09-28T10:49:06;6.70;;;5.07;;
16407;SDS011;8313;49.894;8.084;2022-09-28T10:51:42;5.33;;;3.63;;
16407;SDS011;8313;49.894;8.084;2022-09-28T10:54:16;7.53;;;5.33;;
16407;SDS011;8313;49.894;8.084;2022-09-28T10:56:48;9.90;;;6.10;;
16407;SDS011;8313;49.894;8.084;2022-09-28T11:01:52;12.23;;;6.93;;
16407;SDS011;8313;49.894;8.084;2022-09-28T11:04:21;20.10;;;12.40;;
16407;SDS011;8313;49.894;8.084;2022-09-28T11:06:50;16.47;;;9.50;;
16407;SDS011;8313;49.894;8.084;2022-09-28T11:09:25;7.23;;;5.30;;
16407;SDS011;8313;49.894;8.084;2022-09-28T11:11:56;10.10;;;3.80;;
16407;SDS011;8313;49.894;8.084;2022-09-28T11:19:57;2.50;;;1.30;;
16407;SDS011;8313;49.894;8.084;2022-09-28T11:22:26;1.50;;;1.40;;
16407;SDS011;8313;49.894;8.084;2022-09-28T11:27:41;9.43;;;6.77;;
16407;SDS011;8313;49.894;8.084;2022-09-28T11:33:31;13.30;;;9.57;;
16407;SDS011;8313;49.894;8.084;2022-09-28T11:47:50;101.73;;;39.60;;
16407;SDS011;8313;49.894;8.084;2022-09-28T11:50:29;32.87;;;17.63;;
16407;SDS011;8313;49.894;8.084;2022-09-28T11:55:52;21.77;;;13.07;;
16407;SDS011;8313;49.894;8.084;2022-09-28T11:58:26;38.60;;;19.07;;
16407;SDS011;8313;49.894;8.084;2022-09-28T12:01:11;34.47;;;18.50;;
16407;SDS011;8313;49.894;8.084;2022-09-28T12:04:43;13.83;;;7.60;;
16407;SDS011;8313;49.894;8.084;2022-09-28T12:07:16;2.90;;;2.30;;
16407;SDS011;8313;49.894;8.084;2022-09-28T12:09:54;1.73;;;1.63;;
16407;SDS011;8313;49.894;8.084;2022-09-28T12:12:29;1.20;;;1.10;;
16407;SDS011;8313;49.894;8.084;2022-09-28T12:15:04;1.33;;;1.10;;
16407;SDS011;8313;49.894;8.084;2022-09-28T12:17:53;2.53;;;1.17;;
16407;SDS011;8313;49.894;8.084;2022-09-28T12:20:29;0.90;;;0.90;;
16407;SDS011;8313;49.894;8.084;2022-09-28T12:25:24;1.20;;;1.10;;
16407;SDS011;8313;49.894;8.084;2022-09-28T12:27:55;2.70;;;1.10;;
16407;SDS011;8313;49.894;8.084;2022-09-28T12:30:24;1.20;;;1.10;;
16407;SDS011;8313;49.894;8.084;2022-09-28T12:35:32;0.93;;;0.93;;
16407;SDS011;8313;49.894;8.084;2022-09-28T12:41:12;2.63;;;2.20;;
16407;SDS011;8313;49.894;8.084;2022-09-28T12:49:54;1.30;;;1.20;;
16407;SDS011;8313;49.894;8.084;2022-09-28T12:53:24;1.00;;;0.83;;
16407;SDS011;8313;49.894;8.084;2022-09-28T13:02:10;1.80;;;1.23;;
16407;SDS011;8313;49.894;8.084;2022-09-28T13:07:26;1.40;;;1.30;;
16407;SDS011;8313;49.894;8.084;2022-09-28T13:10:08;9.07;;;4.90;;
16407;SDS011;8313;49.894;8.084;2022-09-28T13:15:58;8.60;;;5.37;;
16407;SDS011;8313;49.894;8.084;2022-09-28T13:18:37;10.00;;;6.30;;
16407;SDS011;8313;49.894;8.084;2022-09-28T13:23:50;11.53;;;5.90;;
16407;SDS011;8313;49.894;8.084;2022-09-28T13:26:38;19.07;;;9.67;;
16407;SDS011;8313;49.894;8.084;2022-09-28T13:29:10;36.17;;;20.33;;
16407;SDS011;8313;49.894;8.084;2022-09-28T13:31:44;43.23;;;22.60;;
16407;SDS011;8313;49.894;8.084;2022-09-28T13:34:12;33.63;;;17.20;;
16407;SDS011;8313;49.894;8.084;2022-09-28T13:36:44;126.43;;;52.83;;
16407;SDS011;8313;49.894;8.084;2022-09-28T13:42:08;64.73;;;31.03;;
16407;SDS011;8313;49.894;8.084;2022-09-28T13:47:16;45.93;;;24.57;;
16407;SDS011;8313;49.894;8.084;2022-09-28T13:50:04;37.20;;;19.53;;
16407;SDS011;8313;49.894;8.084;2022-09-28T13:53:02;14.17;;;8.10;;
16407;SDS011;8313;49.894;8.084;2022-09-28T13:55:46;5.27;;;3.97;;
16407;SDS011;8313;49.894;8.084;2022-09-28T14:01:16;1.13;;;1.03;;
16407;SDS011;8313;49.894;8.084;2022-09-28T14:03:53;1.17;;;1.17;;
16407;SDS011;8313;49.894;8.084;2022-09-28T14:06:42;2.50;;;1.33;;
16407;SDS011;8313;49.894;8.084;2022-09-28T14:09:38;1.00;;;1.00;;
16407;SDS011;8313;49.894;8.084;2022-09-28T14:14:55;2.30;;;2.10;;
16407;SDS011;8313;49.894;8.084;2022-09-28T14:28:02;1.53;;;1.33;;
16407;SDS011;8313;49.894;8.084;2022-09-28T14:30:51;7.47;;;2.47;;
16407;SDS011;8313;49.894;8.084;2022-09-28T14:35:53;3.50;;;2.60;;
16407;SDS011;8313;49.894;8.084;2022-09-28T14:43:56;5.73;;;4.10;;
16407;SDS011;8313;49.894;8.084;2022-09-28T14:46:28;4.10;;;3.17;;
16407;SDS011;8313;49.894;8.084;2022-09-28T14:54:20;1.50;;;1.40;;
16407;SDS011;8313;49.894;8.084;2022-09-28T14:59:16;1.83;;;1.60;;
16407;SDS011;8313;49.894;8.084;2022-09-28T15:01:52;1.90;;;1.70;;
16407;SDS011;8313;49.894;8.084;2022-09-28T15:04:22;1.87;;;1.47;;
16407;SDS011;8313;49.894;8.084;2022-09-28T15:06:51;1.47;;;1.37;;
16407;SDS011;8313;49.894;8.084;2022-09-28T15:09:31;3.03;;;2.00;;
16407;SDS011;8313;49.894;8.084;2022-09-28T15:12:01;2.77;;;1.97;;
16407;SDS011;8313;49.894;8.084;2022-09-28T15:14:31;2.30;;;2.10;;
16407;SDS011;8313;49.894;8.084;2022-09-28T15:16:59;2.20;;;2.00;;
16407;SDS011;8313;49.894;8.084;2022-09-28T15:19:41;1.60;;;1.50;;
16407;SDS011;8313;49.894;8.084;2022-09-28T15:22:21;2.03;;;1.93;;
16407;SDS011;8313;49.894;8.084;2022-09-28T15:24:54;3.30;;;2.00;;
16407;SDS011;8313;49.894;8.084;2022-09-28T15:27:20;2.83;;;1.90;;
16407;SDS011;8313;49.894;8.084;2022-09-28T15:30:22;1.90;;;1.80;;
16407;SDS011;8313;49.894;8.084;2022-09-28T15:32:59;1.70;;;1.60;;
16407;SDS011;8313;49.894;8.084;2022-09-28T15:36:00;6.57;;;2.90;;
16407;SDS011;8313;49.894;8.084;2022-09-28T15:38:29;1.57;;;1.47;;
16407;SDS011;8313;49.894;8.084;2022-09-28T15:40:58;28.87;;;16.50;;
16407;SDS011;8313;49.894;8.084;2022-09-28T15:43:29;21.13;;;10.73;;
16407;SDS011;8313;49.894;8.084;2022-09-28T15:46:13;7.13;;;5.13;;
16407;SDS011;8313;49.894;8.084;2022-09-28T15:48:54;7.77;;;4.83;;
16407;SDS011;8313;49.894;8.084;2022-09-28T15:51:23;18.50;;;13.50;;
16407;SDS011;8313;49.894;8.084;2022-09-28T15:54:33;18.03;;;13.13;;
16407;SDS011;8313;49.894;8.084;2022-09-28T15:56:50;11.53;;;8.57;;
16407;SDS011;8313;49.894;8.084;2022-09-28T15:59:24;7.30;;;4.73;;
16407;SDS011;8313;49.894;8.084;2022-09-28T16:04:44;5.97;;;4.90;;
16407;SDS011;8313;49.894;8.084;2022-09-28T16:15:02;3.73;;;3.13;;
16407;SDS011;8313;49.894;8.084;2022-09-28T16:17:48;2.40;;;2.07;;
16407;SDS011;8313;49.894;8.084;2022-09-28T16:20:37;4.10;;;2.00;;
16407;SDS011;8313;49.894;8.084;2022-09-28T16:23:08;2.27;;;2.07;;
16407;SDS011;8313;49.894;8.084;2022-09-28T16:25:40;2.73;;;2.13;;
16407;SDS011;8313;49.894;8.084;2022-09-28T16:31:03;3.00;;;1.97;;
16407;SDS011;8313;49.894;8.084;2022-09-28T16:33:39;1.80;;;1.70;;
16407;SDS011;8313;49.894;8.084;2022-09-28T16:36:09;2.30;;;1.30;;
16407;SDS011;8313;49.894;8.084;2022-09-28T16:38:38;2.13;;;1.67;;
16407;SDS011;8313;49.894;8.084;2022-09-28T16:41:03;1.93;;;1.50;;
16407;SDS011;8313;49.894;8.084;2022-09-28T16:43:30;1.43;;;1.33;;
16407;SDS011;8313;49.894;8.084;2022-09-28T16:46:00;2.90;;;2.37;;
16407;SDS011;8313;49.894;8.084;2022-09-28T16:48:30;3.10;;;2.47;;
16407;SDS011;8313;49.894;8.084;2022-09-28T16:50:58;2.20;;;2.00;;
16407;SDS011;8313;49.894;8.084;2022-09-28T16:53:24;2.07;;;1.97;;
16407;SDS011;8313;49.894;8.084;2022-09-28T16:56:09;2.70;;;2.17;;
16407;SDS011;8313;49.894;8.084;2022-09-28T16:58:36;3.37;;;2.43;;
16407;SDS011;8313;49.894;8.084;2022-09-28T17:01:03;2.93;;;2.57;;
16407;SDS011;8313;49.894;8.084;2022-09-28T17:03:32;2.70;;;2.50;;
16407;SDS011;8313;49.894;8.084;2022-09-28T17:05:58;3.60;;;3.00;;
16407;SDS011;8313;49.894;8.084;2022-09-28T17:08:26;3.23;;;2.87;;
16407;SDS011;8313;49.894;8.084;2022-09-28T17:10:53;3.90;;;3.60;;
16407;SDS011;8313;49.894;8.084;2022-09-28T17:13:27;3.87;;;3.20;;
16407;SDS011;8313;49.894;8.084;2022-09-28T17:15:58;4.00;;;3.13;;
16407;SDS011;8313;49.894;8.084;2022-09-28T17:18:25;3.80;;;3.50;;
16407;SDS011;8313;49.894;8.084;2022-09-28T17:20:52;3.30;;;3.00;;
16407;SDS011;8313;49.894;8.084;2022-09-28T17:23:20;4.53;;;3.27;;
16407;SDS011;8313;49.894;8.084;2022-09-28T17:25:45;3.30;;;3.10;;
16407;SDS011;8313;49.894;8.084;2022-09-28T17:28:19;3.60;;;3.30;;
16407;SDS011;8313;49.894;8.084;2022-09-28T17:30:57;16.37;;;11.20;;
16407;SDS011;8313;49.894;8.084;2022-09-28T17:33:23;6.37;;;5.53;;
16407;SDS011;8313;49.894;8.084;2022-09-28T17:35:50;4.40;;;3.30;;
16407;SDS011;8313;49.894;8.084;2022-09-28T17:38:21;4.43;;;4.03;;
16407;SDS011;8313;49.894;8.084;2022-09-28T17:40:47;3.80;;;3.40;;
16407;SDS011;8313;49.894;8.084;2022-09-28T17:43:12;3.97;;;3.57;;
16407;SDS011;8313;49.894;8.084;2022-09-28T17:45:38;3.80;;;3.40;;
16407;SDS011;8313;49.894;8.084;2022-09-28T17:48:14;4.50;;;3.07;;
16407;SDS011;8313;49.894;8.084;2022-09-28T17:50:43;3.77;;;2.83;;
16407;SDS011;8313;49.894;8.084;2022-09-28T17:53:10;2.23;;;2.03;;
16407;SDS011;8313;49.894;8.084;2022-09-28T17:55:37;2.93;;;1.93;;
16407;SDS011;8313;49.894;8.084;2022-09-28T17:58:13;2.27;;;2.13;;
16407;SDS011;8313;49.894;8.084;2022-09-28T18:00:47;4.13;;;2.40;;
16407;SDS011;8313;49.894;8.084;2022-09-28T18:03:15;3.10;;;2.50;;
16407;SDS011;8313;49.894;8.084;2022-09-28T18:05:43;3.20;;;2.03;;
16407;SDS011;8313;49.894;8.084;2022-09-28T18:08:13;3.50;;;2.30;;
16407;SDS011;8313;49.894;8.084;2022-09-28T18:10:41;6.17;;;3.83;;
16407;SDS011;8313;49.894;8.084;2022-09-28T18:13:07;7.70;;;5.33;;
16407;SDS011;8313;49.894;8.084;2022-09-28T18:15:33;10.50;;;7.13;;
16407;SDS011;8313;49.894;8.084;2022-09-28T18:17:58;8.13;;;6.20;;
16407;SDS011;8313;49.894;8.084;2022-09-28T18:20:24;6.03;;;4.63;;
16407;SDS011;8313;49.894;8.084;2022-09-28T18:22:50;6.17;;;4.90;;
16407;SDS011;8313;49.894;8.084;2022-09-28T18:25:16;6.77;;;5.03;;
16407;SDS011;8313;49.894;8.084;2022-09-28T18:27:41;8.83;;;6.20;;
16407;SDS011;8313;49.894;8.084;2022-09-28T18:30:07;7.67;;;6.97;;
16407;SDS011;8313;49.894;8.084;2022-09-28T18:32:36;7.30;;;6.70;;
16407;SDS011;8313;49.894;8.084;2022-09-28T18:35:06;8.17;;;7.47;;
16407;SDS011;8313;49.894;8.084;2022-09-28T18:37:37;9.40;;;8.57;;
16407;SDS011;8313;49.894;8.084;2022-09-28T18:40:04;10.20;;;9.20;;
16407;SDS011;8313;49.894;8.084;2022-09-28T18:42:31;11.90;;;10.67;;
16407;SDS011;8313;49.894;8.084;2022-09-28T18:45:00;14.67;;;9.57;;